Lake Arthur, Louisiana
Current Conditions -  °F | °C
As of 12:15 AM on Thursday 23 Oct 2014 (Local Time) from K3R7 Reporting Station
Clear Clear  
Wind Chill: 58°   Ceiling: Unl
Heat Index: 58°   Visibility: 10mi
Dew Point: 54°   Wind: 3mph
Humidity: 87%   Direction: 10°N
Pressure: 30.1"   Gusts: NA
Location:  30.08°N, 92.67°W
Report Text: K3R7 230515Z AUTO 01003KT 10SM CLR 14/12 A3010 RMK AO2 T01420120
Loading
Personal Weather Stations






























Interactive Weather Map
Tropical Storm Tracking
New forecast layout! Learn more

10-Day Weather Forecast

Advertisements
Track Severe Weather on mobile